Juneau International Airport
PAJN : now visible

Airfield :











YOU CAN JOIN US ON...

 
LOGIN :

Register | Disclaimer

   EN    FR    IT 

 









Legend :    VFR   Marginal VFR   IFR   Intensive IFR   Very Intensive IFR
Visi :
Ceiling :
>= 8 km
>= 3000ft
5 to 8 km
1000 to 3000 ft
1500m to 5 km
500 to 1000 ft
800 to 1500m
200 to 500 ft
< 800m
< 200 ft
Symbols :   Thunderstorms  Fog  Heavy snow  Heavy precipitations  Wind > 20 kt






- Airport Elevation : 21 ft
- IATA code : JNU


PAJN - Juneau International

CURRENT METAR :
  • 270353Z 12017KT 10SM -RA OVC044 03/01 A2965 RMK AO2 PK WND 12027/0258 SLP040 P0002 T00330011

EXPIRED METARs :
  • 270253Z 12021G26KT 10SM -RA FEW014 BKN041 OVC075 04/02 A2965 RMK AO2 PK WND 11028/0216 SLP042 P0002 60004 T00390017 56016
  • 270153Z 11022G29KT 10SM -RA FEW011 BKN036 OVC085 04/01 A2966 RMK AO2 PK WND 12030/0106 SLP044 P0001 T00390011

TAF PAJN
Valid from the 27 at 00:00 until the 28 at 00:00 UTC


262331Z 2700/2724 12021G35KT P6SM -RA BKN025 OVC050 WS020/18030KT
FM271500 11012KT 2SM -RA BR OVC015



MET'MAP, your aeronautical weather chart ! - Copyright ORBIFLY December 2007 - Disclaimer

ORBIFLY MET'MAP TEAM :

Programming & Development : Alexandra Zaïnal
Concept & original design : Baudouin d'Aumeries
Assistance for programming : Marc-Olivier Méhu
Technical & hardware support : Manuel Goepfert

Contact : metmap@orbifly.com




SOURCES & CREDITS :

   NOAA       Earth
Advisory